Altus Air Force Base
KLTS : rendu visible

Aérodrome :











RETROUVEZ-NOUS SUR...

 
LOGIN :

S'inscrire | Disclaimer

   EN    FR    IT 

 









Légende :    VFR   VFR Marginal   IFR   IFR Intensif   IFR Très Intensif
Visi : 
Plafond : 
>= 8 km
>= 3000ft
5 à 8 km
1000 à 3000 ft
1500m à 5 km
500 à 1000 ft
800 à 1500m
200 à 500 ft
< 800m
< 200 ft
Symboles :   Orages  Brouillard  Fortes neiges  Fortes précipitations  Vent > 20 kt






- Altitude de l'aérodrome : 1382 ft


KLTS - Altus Air Force Base

DERNIER METAR :
  • 081256Z AUTO 00000KT 10SM CLR 08/06 A2981 RMK AO2 SLP088 T00820058 $

METARs EXPIRÉS :
  • 081156Z AUTO 00000KT 10SM CLR 10/05 A2979 RMK AO2 SLP078 T01040050 10177 20091 53001 $
  • 081056Z AUTO 24004KT 10SM CLR 13/05 A2978 RMK AO2 SLP072 T01290046 $
  • 080956Z AUTO 00000KT 10SM CLR 11/07 A2979 RMK AO2 SLP076 T01050074 $

TAF TAF KLTS
Valide du 08 à 09h jusqu'au 09 à 15h UTC


080900Z 0809/0915 28009KT 9999 SCT250 510102 QNH2976INS
BECMG 0815/0816 26012G18KT 9999 SCT250 QNH2970INS
BECMG 0823/0824 30009KT 9999 SCT220 510062 QNH2972INS
BECMG 0904/0905 04011G17KT 9999 SCT200 510203 QNH2987INS TX34/0821Z TN13/0812Z



MET'MAP, la Météo Aéronautique d'un coup d'oeil ! - Copyright ORBIFLY Décembre 2007 - Disclaimer

ORBIFLY MET'MAP TEAM :

Programmation & Développement : Alexandra Zaïnal
Sur une idée originale de : Baudouin d'Aumeries
Assistance à la programmation : Marc-Olivier Méhu
Soutien technique & logistique : Manuel Goepfert

Contact : metmap@orbifly.com




SOURCES & CREDITS :

   NOAA       Earth
Advisory